Jamul, CA

8:34 PM PDT on July 30, 2015 (GMT -0700)
Deerhorn Valley- Rock Bottom Ranch | | Change Station
CLOSE
Current Station
Personal Weather Station
Location: Jamul, CA
Elevation: 2533 ft
Nearby Weather Stations

Elev 2533 ft 32.65 °N, 116.73 °W | Updated 7 minutes ago

Clear
Clear
74.4 °F
Feels Like 77 °F
N
0.0
Wind Variable Wind from East

Today
High -- | Low -- °F
--% Chance of Precip.
Yesterday
High -- | Low -- °F
Precip. -- in
5:59 AM 7:46 PM
Full, 100% visible
Pressure 30.02 in
Visibility 10.0 miles
Clouds Scattered Clouds 1400 ft
Heat Index 77 °F
Dew Point 57 °F
Humidity 55%
Rainfall 0.00 in
Snow Depth Not available.
UV 0 out of 12
Pollen 3.50 out of 12
Air Quality Not available.
Flu Activity Not available.
SPECI KSDM 310327Z AUTO 27005KT 10SM SCT014 20/18 A3002 RMK AO2 T02000178

More Conditions Fewer Conditions

Pressure 30.02 in
Visibility 10.0 miles
Clouds Scattered Clouds 1400 ft
Heat Index 77 °F
Dew Point 57 °F
Humidity 55%
Rainfall 0.00 in
Snow Depth Not available.
UV 0 out of 12
Pollen 3.50 out of 12
Air Quality Not available.
Flu Activity Not available.
SPECI KSDM 310327Z AUTO 27005KT 10SM SCT014 20/18 A3002 RMK AO2 T02000178

More Conditions Fewer Conditions

10-Day Weather Forecast

×

Almanac

Astronomy

Jul. 30, 2015 Rise Set
Actual Time
Civil Twilight
Nautical Twilight
Astronomical Twilight
Moon
Length of Visible Light
Length of Day
Tomorrow will be .
, % of the Moon is Illuminated

Today's Extremes

State Highs State Lows

Community

WunderPhotos

Upload Photos

1,842,598 photos uploaded!

WunderBlogs® & News

Nearby

Air Quality

  Air Quality AQ Index Pollutant
Not available.

Snow Depth

Station Depth Elevation

Earthquake Activity

City Distance Mag. Time & Date
Minimum magnitude displayed is 2.5.

Coastal Water Temperatures

Place Temperature

Stations

Nearby Weather Stations

Station Location Temp. Windchill Dew Point Humidity Wind Precip. Elev Updated Type